createdAt,value
2017-09-20T00:00:35.416Z,87.63
2017-09-20T00:03:03.834Z,87.86
2017-09-20T00:05:32.202Z,87.79
2017-09-20T00:08:04.877Z,87.70
2017-09-20T00:10:37.256Z,87.66
2017-09-20T00:13:10.249Z,87.86
2017-09-20T00:15:44.861Z,87.85
2017-09-20T00:18:13.184Z,87.69
2017-09-20T00:20:41.531Z,87.60
2017-09-20T00:23:11.524Z,87.59
2017-09-20T00:25:39.842Z,87.75
2017-09-20T00:28:08.302Z,87.70
2017-09-20T00:30:38.759Z,87.68
2017-09-20T00:33:07.528Z,87.54
2017-09-20T00:35:37.622Z,87.74
2017-09-20T00:38:06.113Z,87.35
2017-09-20T00:40:40.251Z,87.29
2017-09-20T00:43:08.595Z,87.54
2017-09-20T00:45:37.013Z,87.48
2017-09-20T00:48:05.356Z,87.64
2017-09-20T00:50:34.162Z,87.59
2017-09-20T00:53:03.239Z,87.83
2017-09-20T00:55:37.742Z,87.91
2017-09-20T00:58:06.253Z,88.25
2017-09-20T01:00:48.097Z,88.23
2017-09-20T01:03:16.542Z,88.34
2017-09-20T01:05:47.064Z,87.73
2017-09-20T01:08:15.465Z,87.83
2017-09-20T01:10:44.003Z,87.70
2017-09-20T01:13:15.913Z,87.93
2017-09-20T01:15:45.209Z,87.55
2017-09-20T01:18:14.507Z,87.24
2017-09-20T01:21:01.444Z,86.92
2017-09-20T01:23:37.220Z,86.88
2017-09-20T01:26:05.800Z,87.47
2017-09-20T01:28:39.450Z,86.93
2017-09-20T01:31:13.876Z,87.24
2017-09-20T01:33:43.488Z,86.91
2017-09-20T01:36:11.959Z,86.84
2017-09-20T01:38:40.260Z,86.81
2017-09-20T01:41:09.581Z,87.70
2017-09-20T01:43:37.937Z,87.88
2017-09-20T01:46:07.253Z,87.42
2017-09-20T01:48:36.529Z,86.91
2017-09-20T01:51:09.537Z,87.67
2017-09-20T01:53:39.768Z,88.04
2017-09-20T01:56:09.039Z,88.14
2017-09-20T01:58:37.430Z,87.60
2017-09-20T02:01:10.593Z,87.86
2017-09-20T02:03:40.028Z,88.20
2017-09-20T02:06:09.329Z,88.50
2017-09-20T02:08:38.940Z,87.86
2017-09-20T02:11:08.215Z,87.41
2017-09-20T02:13:36.608Z,87.25
2017-09-20T02:16:06.844Z,87.54
2017-09-20T02:18:39.810Z,87.26
2017-09-20T02:21:08.210Z,87.30
2017-09-20T02:23:38.421Z,88.05
2017-09-20T02:26:08.921Z,88.73
2017-09-20T02:28:37.327Z,88.43
2017-09-20T02:31:06.641Z,88.73
2017-09-20T02:33:35.964Z,88.97
2017-09-20T02:36:05.235Z,89.22
2017-09-20T02:38:33.647Z,88.74
2017-09-20T02:41:01.995Z,88.77
2017-09-20T02:43:32.253Z,88.12
2017-09-20T02:46:00.609Z,88.84
2017-09-20T02:48:29.914Z,88.16
2017-09-20T02:51:02.322Z,87.51
2017-09-20T02:53:30.664Z,87.91
2017-09-20T02:56:01.828Z,88.22
2017-09-20T02:58:34.194Z,88.83
2017-09-20T03:01:05.680Z,88.16
2017-09-20T03:03:34.931Z,88.14
2017-09-20T03:06:05.432Z,88.13
2017-09-20T03:08:34.762Z,88.31
2017-09-20T03:11:04.086Z,88.14
2017-09-20T03:13:37.084Z,88.03
2017-09-20T03:16:11.849Z,88.17
2017-09-20T03:18:43.079Z,88.03
2017-09-20T03:21:12.323Z,87.94
2017-09-20T03:23:41.115Z,87.74
2017-09-20T03:26:09.415Z,88.15
2017-09-20T03:28:51.794Z,87.75
2017-09-20T03:31:23.394Z,87.57
2017-09-20T03:33:52.678Z,88.11
2017-09-20T03:36:21.995Z,88.61
2017-09-20T03:38:51.281Z,87.98
2017-09-20T03:41:20.840Z,87.70
2017-09-20T03:43:53.261Z,87.77
2017-09-20T03:46:22.842Z,87.82
2017-09-20T03:48:51.241Z,88.38
2017-09-20T03:51:19.557Z,88.36
2017-09-20T03:53:48.927Z,88.05
2017-09-20T03:56:18.224Z,87.77
2017-09-20T03:58:50.922Z,87.80
2017-09-20T04:01:20.230Z,88.08
2017-09-20T04:03:49.744Z,88.10
2017-09-20T04:06:18.075Z,88.95
2017-09-20T04:08:46.495Z,89.41
2017-09-20T04:11:16.831Z,89.38
2017-09-20T04:13:46.980Z,88.96
2017-09-20T04:16:15.354Z,88.57
2017-09-20T04:18:43.721Z,88.63
2017-09-20T04:21:12.367Z,88.27
2017-09-20T04:23:40.702Z,89.46
2017-09-20T04:26:12.392Z,89.22
2017-09-20T04:28:41.929Z,88.75
2017-09-20T04:31:10.314Z,89.15
2017-09-20T04:33:38.711Z,88.82
2017-09-20T04:36:07.084Z,88.38
2017-09-20T04:38:37.336Z,88.37
2017-09-20T04:41:05.675Z,88.45
2017-09-20T04:43:34.010Z,88.22
2017-09-20T04:46:02.321Z,88.36
2017-09-20T04:48:31.424Z,88.16
2017-09-20T04:51:00.533Z,88.09
2017-09-20T04:53:28.858Z,87.94
2017-09-20T04:55:57.195Z,87.89
2017-09-20T04:58:25.508Z,88.49
2017-09-20T05:00:54.343Z,87.93
2017-09-20T05:03:22.654Z,88.49
2017-09-20T05:05:51.751Z,88.81
2017-09-20T05:08:20.079Z,88.67
2017-09-20T05:10:48.443Z,89.29
2017-09-20T05:13:16.808Z,88.71
2017-09-20T05:15:45.121Z,89.06
2017-09-20T05:18:14.634Z,89.26
2017-09-20T05:20:42.952Z,89.02
2017-09-20T05:23:11.269Z,89.28
2017-09-20T05:25:39.610Z,89.34
2017-09-20T05:28:08.021Z,89.17
2017-09-20T05:30:36.739Z,89.61
2017-09-20T05:33:05.052Z,89.31
2017-09-20T05:35:33.370Z,88.75
2017-09-20T05:38:01.743Z,88.44
2017-09-20T05:40:30.047Z,89.22
2017-09-20T05:42:58.400Z,89.29
2017-09-20T05:45:26.755Z,89.37
2017-09-20T05:47:57.026Z,89.71
2017-09-20T05:50:25.361Z,89.40
2017-09-20T05:52:53.694Z,89.59
2017-09-20T05:55:22.802Z,89.71
2017-09-20T05:57:51.141Z,89.36
2017-09-20T06:00:19.489Z,89.32
2017-09-20T06:02:47.802Z,89.17
2017-09-20T06:05:16.143Z,89.44
2017-09-20T06:07:45.249Z,89.27
2017-09-20T06:10:13.624Z,89.44
2017-09-20T06:12:44.115Z,89.70
2017-09-20T06:15:12.530Z,89.18
2017-09-20T06:17:40.845Z,89.14
2017-09-20T06:20:09.205Z,89.32
2017-09-20T06:22:38.423Z,88.97
2017-09-20T06:25:06.771Z,88.85
2017-09-20T06:27:35.101Z,88.48
2017-09-20T06:30:03.684Z,88.68
2017-09-20T06:32:32.002Z,88.62
2017-09-20T06:35:00.320Z,88.22
2017-09-20T06:37:28.666Z,88.30
2017-09-20T06:39:57.002Z,88.13
2017-09-20T06:42:25.328Z,87.83
2017-09-20T06:44:53.649Z,87.92
2017-09-20T06:47:21.995Z,87.64
2017-09-20T06:49:50.305Z,87.91
2017-09-20T06:52:18.654Z,87.48
2017-09-20T06:54:47.004Z,87.39
2017-09-20T06:57:15.330Z,87.75
2017-09-20T06:59:43.977Z,87.69
2017-09-20T07:02:12.310Z,87.22
2017-09-20T07:04:41.019Z,87.43
2017-09-20T07:07:09.341Z,87.59
2017-09-20T07:09:37.670Z,86.82
2017-09-20T07:12:06.793Z,86.69
2017-09-20T07:14:35.130Z,86.87
2017-09-20T07:17:03.451Z,86.90
2017-09-20T07:19:31.779Z,86.94
2017-09-20T07:22:00.171Z,86.53
2017-09-20T07:24:28.501Z,86.14
2017-09-20T07:26:56.867Z,86.16
2017-09-20T07:29:25.220Z,86.26
2017-09-20T07:31:53.548Z,86.16
2017-09-20T07:34:22.801Z,85.98
2017-09-20T07:36:51.151Z,86.63
2017-09-20T07:39:20.118Z,86.56
2017-09-20T07:41:48.453Z,86.73
2017-09-20T07:44:17.563Z,86.58
2017-09-20T07:46:45.898Z,86.40
2017-09-20T07:49:14.235Z,86.06
2017-09-20T07:51:42.581Z,86.22
2017-09-20T07:54:10.903Z,86.19
2017-09-20T07:56:39.730Z,86.43
2017-09-20T07:59:08.064Z,86.00
2017-09-20T08:01:36.402Z,85.84
2017-09-20T08:04:04.753Z,85.70
2017-09-20T08:06:33.075Z,85.79
2017-09-20T08:09:01.447Z,85.72
2017-09-20T08:11:29.773Z,86.11
2017-09-20T08:13:58.196Z,86.97
2017-09-20T08:16:26.520Z,87.28
2017-09-20T08:18:54.885Z,86.82
2017-09-20T08:21:23.245Z,86.40
2017-09-20T08:23:51.567Z,86.20
2017-09-20T08:26:20.034Z,86.19
2017-09-20T08:28:49.284Z,86.03
2017-09-20T08:31:18.103Z,85.83
2017-09-20T08:33:46.429Z,85.68
2017-09-20T08:36:14.759Z,85.74
2017-09-20T08:38:43.154Z,85.79
2017-09-20T08:41:11.492Z,85.94
2017-09-20T08:43:39.849Z,86.34
2017-09-20T08:46:08.172Z,86.61
2017-09-20T08:48:36.543Z,86.59
2017-09-20T08:51:04.867Z,86.19
2017-09-20T08:53:33.204Z,86.18
2017-09-20T08:56:01.587Z,85.65
2017-09-20T08:58:30.704Z,85.45
2017-09-20T09:01:03.073Z,85.11
2017-09-20T09:03:32.155Z,85.09
2017-09-20T09:06:00.502Z,84.88
2017-09-20T09:08:29.594Z,84.74
2017-09-20T09:10:57.942Z,84.87
2017-09-20T09:13:26.290Z,84.90
2017-09-20T09:15:54.673Z,84.62
2017-09-20T09:18:23.035Z,84.20
2017-09-20T09:20:51.382Z,84.71
2017-09-20T09:23:19.714Z,84.46
2017-09-20T09:25:48.842Z,84.47
2017-09-20T09:28:17.168Z,84.22
2017-09-20T09:30:45.883Z,84.33
2017-09-20T09:33:14.230Z,83.85
2017-09-20T09:35:42.574Z,83.87
2017-09-20T09:38:10.920Z,84.31
2017-09-20T09:40:40.024Z,84.36
2017-09-20T09:43:08.373Z,84.18
2017-09-20T09:45:38.244Z,83.99
2017-09-20T09:48:07.020Z,84.17
2017-09-20T09:50:35.370Z,84.27
2017-09-20T09:53:03.711Z,83.00
2017-09-20T09:55:32.079Z,81.64
2017-09-20T09:58:00.425Z,82.04
2017-09-20T10:00:29.545Z,81.09
2017-09-20T10:02:57.891Z,81.71
2017-09-20T10:05:26.290Z,81.93
2017-09-20T10:07:54.643Z,82.13
2017-09-20T10:10:22.971Z,82.75
2017-09-20T10:12:51.330Z,82.96
2017-09-20T10:15:19.679Z,82.03
2017-09-20T10:17:48.033Z,81.79
2017-09-20T10:20:16.357Z,80.98
2017-09-20T10:22:45.481Z,80.54
2017-09-20T10:25:13.838Z,79.66
2017-09-20T10:27:42.992Z,80.02
2017-09-20T10:30:11.337Z,80.06
2017-09-20T10:32:39.669Z,79.74
2017-09-20T10:35:08.036Z,80.59
2017-09-20T10:37:36.375Z,80.95
2017-09-20T10:40:04.998Z,81.29
2017-09-20T10:42:33.313Z,81.59
2017-09-20T10:45:01.707Z,82.15
2017-09-20T10:47:30.148Z,81.89
2017-09-20T10:49:58.538Z,82.00
2017-09-20T10:52:26.894Z,81.90
2017-09-20T10:54:55.328Z,81.87
2017-09-20T10:57:24.209Z,81.94
2017-09-20T10:59:52.554Z,81.45
2017-09-20T11:02:20.893Z,81.39
2017-09-20T11:04:49.289Z,82.39
2017-09-20T11:07:17.632Z,81.58
2017-09-20T11:09:45.982Z,81.96
2017-09-20T11:12:14.318Z,81.82
2017-09-20T11:14:42.986Z,80.71
2017-09-20T11:17:11.302Z,80.41
2017-09-20T11:19:39.628Z,80.04
2017-09-20T11:22:07.980Z,79.27
2017-09-20T11:24:36.328Z,79.15
2017-09-20T11:27:04.676Z,78.29
2017-09-20T11:29:33.004Z,77.37
2017-09-20T11:32:01.732Z,74.51
2017-09-20T11:34:30.066Z,73.88
2017-09-20T11:36:58.391Z,72.24
2017-09-20T11:39:26.805Z,72.00
2017-09-20T11:41:55.136Z,72.59
2017-09-20T11:44:24.260Z,72.09
2017-09-20T11:46:52.585Z,70.97
2017-09-20T11:49:21.428Z,73.20
2017-09-20T11:51:49.795Z,72.50
2017-09-20T11:54:18.125Z,73.49
2017-09-20T11:56:46.490Z,71.49
2017-09-20T11:59:14.825Z,70.46
2017-09-20T12:01:43.188Z,71.24
2017-09-20T12:04:12.447Z,72.41
2017-09-20T12:06:40.827Z,72.10
2017-09-20T12:09:09.153Z,71.84
2017-09-20T12:11:37.581Z,71.80
2017-09-20T12:14:05.901Z,72.56
2017-09-20T12:16:34.321Z,70.32
2017-09-20T12:19:03.442Z,71.71
2017-09-20T12:21:31.756Z,70.08
2017-09-20T12:24:00.111Z,68.03
2017-09-20T12:26:28.428Z,68.82
2017-09-20T12:28:56.753Z,70.16
2017-09-20T12:31:25.933Z,71.31
2017-09-20T12:33:54.304Z,70.50
2017-09-20T12:36:23.437Z,70.08
2017-09-20T12:38:52.655Z,70.88
2017-09-20T12:41:21.582Z,71.72
2017-09-20T12:43:49.911Z,70.90
2017-09-20T12:46:18.231Z,70.44
2017-09-20T12:48:46.575Z,70.48
2017-09-20T12:51:14.901Z,70.22
2017-09-20T12:53:43.258Z,68.77
2017-09-20T12:56:11.610Z,69.43
2017-09-20T12:58:40.283Z,69.10
2017-09-20T13:01:08.616Z,67.35
2017-09-20T13:03:36.944Z,68.19
2017-09-20T13:06:05.465Z,67.44
2017-09-20T13:08:33.804Z,69.00
2017-09-20T13:11:02.158Z,67.64
2017-09-20T13:13:30.475Z,66.81
2017-09-20T13:15:58.805Z,65.67
2017-09-20T13:18:27.170Z,66.89
2017-09-20T13:20:55.487Z,64.96
2017-09-20T13:23:23.820Z,66.24
2017-09-20T13:25:52.795Z,66.03
2017-09-20T13:28:21.190Z,66.94
2017-09-20T13:30:50.297Z,64.33
2017-09-20T13:33:18.627Z,62.86
2017-09-20T13:35:47.887Z,64.73
2017-09-20T13:38:16.212Z,64.58
2017-09-20T13:40:44.564Z,63.21
2017-09-20T13:43:12.905Z,64.26
2017-09-20T13:45:41.615Z,65.22
2017-09-20T13:48:09.936Z,65.32
2017-09-20T13:50:38.253Z,67.64
2017-09-20T13:53:06.612Z,68.26
2017-09-20T13:55:36.128Z,66.50
2017-09-20T13:58:05.423Z,66.84
2017-09-20T14:00:33.758Z,65.70
2017-09-20T14:03:02.867Z,63.72
2017-09-20T14:05:31.202Z,64.85
2017-09-20T14:07:59.582Z,63.34
2017-09-20T14:10:27.921Z,62.77
2017-09-20T14:12:56.262Z,63.67
2017-09-20T14:15:29.320Z,64.44
2017-09-20T14:17:57.641Z,62.55
2017-09-20T14:20:26.321Z,62.23
2017-09-20T14:22:55.479Z,62.01
2017-09-20T14:25:23.803Z,62.59
2017-09-20T14:27:52.188Z,61.95
2017-09-20T14:30:20.522Z,63.65
2017-09-20T14:32:48.912Z,65.41
2017-09-20T14:35:17.306Z,65.60
2017-09-20T14:37:46.297Z,64.78
2017-09-20T14:40:15.509Z,65.93
2017-09-20T14:42:43.901Z,64.25
2017-09-20T14:45:12.277Z,63.26
2017-09-20T14:47:40.604Z,61.69
2017-09-20T14:50:08.986Z,61.60
2017-09-20T14:52:37.317Z,61.58
2017-09-20T14:55:06.880Z,62.58
2017-09-20T14:57:35.231Z,63.20
2017-09-20T15:00:04.420Z,63.62
2017-09-20T15:02:32.778Z,65.73
2017-09-20T15:05:02.275Z,62.98
2017-09-20T15:07:31.617Z,62.71
2017-09-20T15:10:05.935Z,63.67
2017-09-20T15:12:35.449Z,62.19
2017-09-20T15:15:06.671Z,62.85
2017-09-20T15:17:35.026Z,65.02
2017-09-20T15:20:03.389Z,65.40
2017-09-20T15:22:31.732Z,65.85
2017-09-20T15:25:00.094Z,65.74
2017-09-20T15:27:28.426Z,65.57
2017-09-20T15:29:56.808Z,66.48
2017-09-20T15:32:25.153Z,66.34
2017-09-20T15:34:53.659Z,67.62
2017-09-20T15:37:22.497Z,66.59
2017-09-20T15:39:50.820Z,65.19
2017-09-20T15:42:19.163Z,64.57
2017-09-20T15:44:47.526Z,62.58
2017-09-20T15:47:15.858Z,61.84
2017-09-20T15:49:44.209Z,62.09
2017-09-20T15:52:12.544Z,61.20
2017-09-20T15:54:40.945Z,59.95
2017-09-20T15:57:10.304Z,59.99
2017-09-20T15:59:38.647Z,59.99
2017-09-20T16:02:06.978Z,59.96
2017-09-20T16:04:35.390Z,58.49
2017-09-20T16:07:04.473Z,58.44
2017-09-20T16:09:33.279Z,58.27
2017-09-20T16:12:03.583Z,57.84
2017-09-20T16:14:32.686Z,58.80
2017-09-20T16:17:01.030Z,60.42
2017-09-20T16:19:29.396Z,60.52
2017-09-20T16:21:58.133Z,60.65
2017-09-20T16:24:26.477Z,63.10
2017-09-20T16:26:54.818Z,64.35
2017-09-20T16:29:23.182Z,65.46
2017-09-20T16:31:52.271Z,66.45
2017-09-20T16:34:21.396Z,64.77
2017-09-20T16:36:50.285Z,60.89
2017-09-20T16:39:19.795Z,63.95
2017-09-20T16:41:50.330Z,60.43
2017-09-20T16:44:31.222Z,63.46
2017-09-20T16:47:01.943Z,65.33
2017-09-20T16:49:33.122Z,66.30
2017-09-20T16:52:01.476Z,67.62
2017-09-20T16:54:29.906Z,67.67
2017-09-20T16:56:58.239Z,69.05
2017-09-20T16:59:26.606Z,69.89
2017-09-20T17:01:56.866Z,71.16
2017-09-20T17:04:26.085Z,70.56
2017-09-20T17:06:56.227Z,70.95
2017-09-20T17:09:25.570Z,72.04
2017-09-20T17:11:56.171Z,72.15
2017-09-20T17:14:41.901Z,71.95
2017-09-20T17:17:10.276Z,72.33
2017-09-20T17:19:39.051Z,72.36
2017-09-20T17:22:07.624Z,73.56
2017-09-20T17:24:36.064Z,73.73
2017-09-20T17:27:04.683Z,74.42
2017-09-20T17:29:33.141Z,75.30
2017-09-20T17:32:01.576Z,75.76
2017-09-20T17:34:30.348Z,75.86
2017-09-20T17:36:58.911Z,76.23
2017-09-20T17:39:27.307Z,75.91
2017-09-20T17:41:55.663Z,76.67
2017-09-20T17:44:52.425Z,77.24
2017-09-20T17:47:21.530Z,77.35
2017-09-20T17:49:53.112Z,77.53
2017-09-20T17:52:35.510Z,77.82
2017-09-20T17:55:10.428Z,77.58
2017-09-20T17:57:39.189Z,78.07
2017-09-20T18:00:07.941Z,77.89
2017-09-20T18:02:44.738Z,77.91
2017-09-20T18:05:13.537Z,77.09
2017-09-20T18:07:42.786Z,77.78
2017-09-20T18:10:11.153Z,78.09
2017-09-20T18:12:39.510Z,78.39
2017-09-20T18:15:07.898Z,78.94
2017-09-20T18:17:37.008Z,80.72
2017-09-20T18:20:06.539Z,80.29
2017-09-20T18:22:34.911Z,80.03
2017-09-20T18:25:03.310Z,80.49
2017-09-20T18:27:32.908Z,80.38
2017-09-20T18:30:05.535Z,81.75
2017-09-20T18:32:38.255Z,81.73
2017-09-20T18:35:07.099Z,81.42
2017-09-20T18:37:35.624Z,81.30
2017-09-20T18:40:03.965Z,81.05
2017-09-20T18:42:34.231Z,80.76
2017-09-20T18:45:06.270Z,81.34
2017-09-20T18:47:35.602Z,81.39
2017-09-20T18:50:04.891Z,81.31
2017-09-20T18:52:33.261Z,80.84
2017-09-20T18:55:02.664Z,80.89
2017-09-20T18:57:34.343Z,81.26
2017-09-20T19:00:05.240Z,81.14
2017-09-20T19:02:33.573Z,81.72
2017-09-20T19:05:01.920Z,83.10
2017-09-20T19:07:30.919Z,82.89
2017-09-20T19:09:59.288Z,82.76
2017-09-20T19:12:27.965Z,82.66
2017-09-20T19:14:57.075Z,82.57
2017-09-20T19:17:26.565Z,82.40
2017-09-20T19:20:00.509Z,83.85
2017-09-20T19:22:28.879Z,82.84
2017-09-20T19:24:58.216Z,83.50
2017-09-20T19:27:26.553Z,83.80
2017-09-20T19:29:55.851Z,83.79
2017-09-20T19:32:26.409Z,83.29
2017-09-20T19:35:06.080Z,82.88
2017-09-20T19:40:08.418Z,82.69
2017-09-20T19:42:38.620Z,83.67
2017-09-20T19:45:08.898Z,83.29
2017-09-20T19:47:37.237Z,83.57
2017-09-20T19:50:06.871Z,83.43
2017-09-20T19:52:47.885Z,83.64
2017-09-20T19:55:16.243Z,84.12
2017-09-20T19:57:44.614Z,84.52
2017-09-20T20:00:16.348Z,84.53
2017-09-20T20:02:45.041Z,84.19
2017-09-20T20:05:13.419Z,83.79
2017-09-20T20:07:41.794Z,83.83
2017-09-20T20:10:10.252Z,85.12
2017-09-20T20:12:39.785Z,85.32
2017-09-20T20:15:09.094Z,85.38
2017-09-20T20:17:37.474Z,84.62
2017-09-20T20:20:05.841Z,84.26
2017-09-20T20:22:34.949Z,84.10
2017-09-20T20:25:03.281Z,84.02
2017-09-20T20:27:32.008Z,83.87
2017-09-20T20:30:01.098Z,84.49
2017-09-20T20:32:29.436Z,84.81
2017-09-20T20:34:58.284Z,84.60
2017-09-20T20:37:26.621Z,84.55
2017-09-20T20:39:54.967Z,85.21
2017-09-20T20:42:23.729Z,84.91
2017-09-20T20:44:52.330Z,85.72
2017-09-20T20:47:20.655Z,85.57
2017-09-20T20:49:49.840Z,84.74
2017-09-20T20:52:18.215Z,84.42
2017-09-20T20:54:46.552Z,84.80
2017-09-20T20:57:14.967Z,85.29
2017-09-20T20:59:43.334Z,85.39
2017-09-20T21:02:11.648Z,85.58
2017-09-20T21:04:40.008Z,85.33
2017-09-20T21:07:08.333Z,84.73
2017-09-20T21:09:40.601Z,84.75
2017-09-20T21:12:08.925Z,84.51
2017-09-20T21:14:37.265Z,84.59
2017-09-20T21:17:06.374Z,84.34
2017-09-20T21:19:34.709Z,84.44
2017-09-20T21:22:03.065Z,84.62
2017-09-20T21:24:31.390Z,84.49
2017-09-20T21:27:00.498Z,84.35
2017-09-20T21:29:29.692Z,84.37
2017-09-20T21:31:58.825Z,84.55
2017-09-20T21:34:27.196Z,85.05
2017-09-20T21:36:55.510Z,84.87
2017-09-20T21:39:23.861Z,84.82
2017-09-20T21:41:52.187Z,84.77
2017-09-20T21:44:20.899Z,84.77
2017-09-20T21:46:50.009Z,84.83
2017-09-20T21:49:18.931Z,84.84
2017-09-20T21:51:48.030Z,84.69
2017-09-20T21:54:18.388Z,85.59
2017-09-20T21:56:46.945Z,85.14
2017-09-20T21:59:15.529Z,84.97
2017-09-20T22:01:44.393Z,85.04
2017-09-20T22:04:13.814Z,84.83
2017-09-20T22:06:43.073Z,85.30
2017-09-20T22:09:13.298Z,85.39
2017-09-20T22:11:42.907Z,84.96
2017-09-20T22:14:12.011Z,85.59
2017-09-20T22:16:58.923Z,85.29
2017-09-20T22:19:45.028Z,85.39
2017-09-20T22:22:31.455Z,85.67
2017-09-20T22:25:17.795Z,85.42
2017-09-20T22:27:47.719Z,85.04
2017-09-20T22:30:16.100Z,85.02
2017-09-20T22:32:44.470Z,85.61
2017-09-20T22:35:12.850Z,85.25
2017-09-20T22:37:41.239Z,85.14
2017-09-20T22:40:09.971Z,85.77
2017-09-20T22:42:38.414Z,86.29
2017-09-20T22:45:08.649Z,85.59
2017-09-20T22:47:39.031Z,85.81
2017-09-20T22:50:10.949Z,85.55
2017-09-20T22:52:40.499Z,85.44
2017-09-20T22:55:08.915Z,85.34
2017-09-20T22:57:39.140Z,85.32
2017-09-20T23:00:10.576Z,85.08
2017-09-20T23:02:38.971Z,85.16
2017-09-20T23:05:08.068Z,85.18
2017-09-20T23:07:38.199Z,85.42
2017-09-20T23:10:07.302Z,86.00
2017-09-20T23:12:36.384Z,86.42
2017-09-20T23:15:04.725Z,87.06
2017-09-20T23:17:33.079Z,86.32
2017-09-20T23:20:01.396Z,86.08
2017-09-20T23:22:29.760Z,85.68
2017-09-20T23:24:58.102Z,85.52
2017-09-20T23:27:26.887Z,85.75
2017-09-20T23:29:55.204Z,85.97
2017-09-20T23:32:23.512Z,85.75
2017-09-20T23:34:51.842Z,85.53
2017-09-20T23:37:20.175Z,85.46
2017-09-20T23:39:48.517Z,85.53
2017-09-20T23:42:16.841Z,85.32
2017-09-20T23:44:46.957Z,85.21
2017-09-20T23:47:15.281Z,85.50
2017-09-20T23:49:43.583Z,85.42
2017-09-20T23:52:12.406Z,85.25
2017-09-20T23:54:41.482Z,85.60
2017-09-20T23:57:09.832Z,85.68
2017-09-20T23:59:39.093Z,85.48
